• Join FlightAware (Why Join?)
  • Login
  • US Flag 
01:58PM EDT


 

Airport Tracker/Info


-or-


 

Live Flight TrackerFlight Track Log ✈ EJA122 ✈ 02-Jul-2013 ✈ KACK - KHPN

Flight Track Log - Related Links

Times and Time Zones

All times are in EDT time to prevent confusion due to time zone crossing. See the EJA122 flight status page for this flight to view local times or setup timezone preferences in your user account.

Time Position Orientation Groundspeed Altitude Reporting Facility
EDT Latitude Longitude Course Direction KTS MPH feet Rate Location/Type
10:47AM 41.3283 -70.2314 304° West 369 425 7,300  Level Boston Center
10:48AM 41.3425 -70.3222 282° West 297 342 9,800 2,220 Climbing Boston Center
10:49AM 41.3547 -70.4186 280° West 279 321 11,800 2,040 Climbing Boston Center
10:50AM 41.3797 -70.5283 287° West 296 341 13,900 2,040 Climbing Boston Center
10:51AM 41.4360 -70.7317 298° West  Level FlightAware Approximate
10:51AM 41.4086 -70.6439 288° West 301 346 15,900  Level Boston Center
10:52AM 41.4845 -70.8356 304° West  Level FlightAware Approximate
10:52AM 41.4497 -70.7422 299° West 316 364 16,000  Level Boston Center
10:53AM 41.5017 -70.8711 298° West 349 402 16,000  Level Boston Center
10:54AM 41.5447 -70.9756 299° West 362 417 16,000  Level Boston Center
10:55AM 41.5942 -71.1050 297° West 362 417 16,000  Level Boston Center
10:56AM 41.6144 -71.2156 284° West 351 404 16,000  Level Boston Center
10:57AM 41.6283 -71.3681 277° West 344 396 16,000  Level Boston Center
10:58AM 41.6378 -71.5039 275° West 339 390 16,000  Level Boston Center
10:59AM 41.6472 -71.6289 276° West 339 390 16,000  Level Boston Center
11:00AM 41.6792 -71.7536 289° West 352 405 16,000  Level Boston Center
11:01AM 41.7133 -71.8700 292° West 357 411 16,000  Level Boston Center
11:02AM 41.7492 -71.9950 291° West 357 411 16,000  Level Boston Center
11:03AM 41.7831 -72.1172 290° West 347 399 16,000  Level Boston Center
11:05AM 41.8125 -72.2283 290° West 353 406 16,000  Level Boston Center
11:06AM 41.8522 -72.3703 291° West 348 400 16,000  Level Boston Center
11:07AM 41.8897 -72.5042 291° West 348 400 16,000  Level Boston Center
11:08AM 41.9208 -72.6158 291° West 355 409 16,000  Level Boston Center
11:09AM 41.9247 -72.7386 272° West 355 409 16,000 -600 Level Boston Center
11:10AM 41.8767 -72.8500 240° Southwest 324 373 14,800 -1,380 Descending Boston Center
11:11AM 41.8281 -72.9639 240° Southwest 337 388 13,300 -1,440 Descending Boston Center
11:12AM 41.7775 -73.0858 241° Southwest 347 399 12,000 -660 Descending Boston Center
11:13AM 41.7289 -73.2022 241° Southwest 359 413 12,000  Level Boston Center
11:14AM 41.6800 -73.3156 240° Southwest 359 413 12,000 -540 Level Boston Center
11:16AM 41.5667 -73.5667 239° Southwest 268 308 10,200 -900 Descending New York TRACON
11:17AM 41.5333 -73.6500 242° Southwest 269 310 8,900 -1,200 Descending New York TRACON
11:18AM 41.5000 -73.7500 246° West 266 306 7,700 -1,200 Descending New York TRACON
11:19AM 41.4667 -73.8167 236° Southwest 257 296 6,600 -900 Descending New York TRACON
11:20AM 41.4000 -73.8500 201° Southwest 258 297 6,000 -720 Descending New York TRACON
11:21AM 41.3333 -73.8333 169° South 192 221 5,200 -1,200 Descending New York TRACON
11:22AM 41.3000 -73.8667 217° Southwest 180 207 3,700 -1,140 Descending New York TRACON
11:23AM 41.2667 -73.8667 180° South 193 222 3,000 -840 Descending New York TRACON
11:24AM 41.2333 -73.8167 132° Southeast 188 216 2,100 -540 Descending New York TRACON
11:25AM 41.1833 -73.8000 166° South 181 208 2,000 -120 Descending New York TRACON